Time;durP1;ratioP1;P1;durP2;ratioP2;P2;SDS_P1;SDS_P2;PMS_P1;PMS_P2;Temp;Humidity;BMP_temperature;BMP_pressure;BME280_temperature;BME280_humidity;BME280_pressure;Samples;Min_cycle;Max_cycle;Signal;HPM_P1;HPM_P2
2022/04/17 05:48:15;;;;;;;;;;;;;;;3.71;57.17;99193.06;5370798;23;19910;-78
2022/04/17 05:50:54;;;;;;;;;;;;;;;3.70;56.57;99202.19;4972704;28;19926;-80
2022/04/17 05:54:01;;;;;;;;;;;;;;;4.00;56.07;99202.84;4981187;28;19934;-78
2022/04/17 06:14:30;;;;;;;;;;;;;;;4.70;53.72;99191.84;6055122;23;19919;-78
2022/04/17 06:17:24;;;;;;;;;;;;;;;4.65;54.28;99199.84;5210051;23;20017;-78
2022/04/17 06:20:44;;;;;;;;;;;;;;;4.86;53.54;99202.91;4950981;28;20007;-78
2022/04/17 08:41:18;;;;;;;;;;;;;;;11.18;36.77;99097.47;4945516;28;19937;-90
2022/04/17 08:43:46;;;;;;;;;;;;;;;11.39;35.78;99096.19;4945886;28;19970;-91
2022/04/17 09:04:00;;;;;;;;;;;;;;;11.46;35.13;99087.69;5349960;23;19930;-91
2022/04/17 09:12:18;;;;;;;;;;;;;;;11.91;32.96;99078.22;5021441;23;19910;-90
2022/04/17 09:23:41;;;;;;;;;;;;;;;11.97;33.56;99079.75;5855247;23;19924;-89
2022/04/17 09:26:15;;;;;;;;;;;;;;;12.13;33.28;99071.41;4936724;28;20341;-92
2022/04/17 09:40:39;;;;;;;;;;;;;;;11.77;33.51;99055.47;5825121;23;19926;-91
2022/04/17 09:43:39;;;;;;;;;;;;;;;11.83;33.82;99061.72;5451825;23;19957;-90
2022/04/17 09:46:09;;;;;;;;;;;;;;;11.42;32.94;99043.91;4998106;28;19973;-90
2022/04/17 09:51:40;;;;;;;;;;;;;;;12.30;30.09;99055.34;5296224;23;19910;-89
2022/04/17 09:54:27;;;;;;;;;;;;;;;12.26;31.70;99054.34;5563908;23;19925;-92
2022/04/17 09:56:58;;;;;;;;;;;;;;;12.49;30.57;99042.53;4975474;28;20364;-94
2022/04/17 09:59:52;;;;;;;;;;;;;;;12.06;31.42;99042.59;4972265;28;19934;-95
2022/04/17 10:02:23;;;;;;;;;;;;;;;12.15;32.56;99041.97;4958036;28;19934;-93
2022/04/17 10:04:53;;;;;;;;;;;;;;;12.61;30.20;99038.53;4949059;28;19926;-93
2022/04/17 10:07:24;;;;;;;;;;;;;;;12.61;30.06;99033.91;4955927;28;19981;-92
2022/04/17 10:09:53;;;;;;;;;;;;;;;12.88;29.34;99018.72;4961744;28;20376;-92
2022/04/17 10:15:14;;;;;;;;;;;;;;;12.76;27.30;99013.75;5932477;23;19929;-91
2022/04/17 10:20:42;;;;;;;;;;;;;;;12.58;30.19;99008.06;5059398;23;20439;-93
2022/04/17 10:23:46;;;;;;;;;;;;;;;12.98;30.07;99013.09;4992493;28;19936;-92
2022/04/17 10:29:14;;;;;;;;;;;;;;;12.59;32.18;99003.41;5203962;23;19930;-93
2022/04/17 10:31:51;;;;;;;;;;;;;;;12.70;31.01;98987.69;4925518;28;20335;-91
2022/04/17 10:34:41;;;;;;;;;;;;;;;12.78;30.65;98978.81;4945578;28;19926;-93
2022/04/17 10:37:18;;;;;;;;;;;;;;;12.87;31.32;98973.47;4941487;28;19930;-93
2022/04/17 10:39:47;;;;;;;;;;;;;;;13.48;31.23;98973.16;4941470;28;19988;-92
2022/04/17 10:42:15;;;;;;;;;;;;;;;13.71;30.77;98975.97;4938816;28;19930;-93
2022/04/17 10:44:45;;;;;;;;;;;;;;;13.96;29.71;98964.50;4941959;28;19930;-93
2022/04/17 10:47:20;;;;;;;;;;;;;;;13.72;29.44;98953.81;4943205;28;19926;-92
2022/04/17 10:49:56;;;;;;;;;;;;;;;13.59;31.04;98954.66;4937289;28;19926;-92
2022/04/17 10:52:28;;;;;;;;;;;;;;;13.63;30.97;98951.00;4933705;28;20025;-94
2022/04/17 10:54:56;;;;;;;;;;;;;;;13.42;30.93;98940.78;4944524;28;19934;-94
2022/04/17 10:57:25;;;;;;;;;;;;;;;13.32;31.25;98939.91;4946389;28;19932;-92
2022/04/17 11:00:08;;;;;;;;;;;;;;;13.42;30.28;98941.59;4944292;28;19981;-93
2022/04/17 11:02:38;;;;;;;;;;;;;;;13.15;30.81;98936.13;4937268;28;19926;-93
2022/04/17 11:05:08;;;;;;;;;;;;;;;13.24;32.95;98934.34;4966461;28;19930;-95
2022/04/17 11:07:37;;;;;;;;;;;;;;;13.94;30.08;98931.19;4955765;28;19937;-89
2022/04/17 11:10:06;;;;;;;;;;;;;;;14.04;29.98;98922.75;4942848;28;19926;-93
2022/04/17 11:12:46;;;;;;;;;;;;;;;14.08;30.61;98921.03;4942054;28;19926;-91
2022/04/17 11:15:22;;;;;;;;;;;;;;;13.66;29.83;98918.72;4982921;23;19986;-86
2022/04/17 11:18:08;;;;;;;;;;;;;;;13.59;30.58;98906.31;4944176;29;19958;-92
2022/04/17 11:24:54;;;;;;;;;;;;;;;13.22;31.37;98903.84;4924692;29;20025;-92
2022/04/17 11:27:41;;;;;;;;;;;;;;;13.09;31.61;98902.69;4919589;29;19931;-94
2022/04/17 11:30:32;;;;;;;;;;;;;;;13.34;32.32;98904.13;4934534;29;20042;-95
2022/04/17 11:33:02;;;;;;;;;;;;;;;13.18;30.28;98894.59;4920255;29;19983;-93
2022/04/17 11:35:30;;;;;;;;;;;;;;;13.39;30.78;98900.47;4918860;29;19934;-92
2022/04/17 11:38:01;;;;;;;;;;;;;;;13.95;30.51;98902.75;4916089;29;19931;-92
2022/04/17 11:40:37;;;;;;;;;;;;;;;14.02;29.31;98892.22;4920422;29;19937;-95
2022/04/17 11:43:11;;;;;;;;;;;;;;;14.27;27.90;98887.22;4932574;29;19935;-94
2022/04/17 11:45:42;;;;;;;;;;;;;;;14.29;28.00;98890.47;4933664;29;19927;-94
2022/04/17 11:48:12;;;;;;;;;;;;;;;14.50;28.47;98879.88;4918351;29;19931;-92
2022/04/17 11:50:42;;;;;;;;;;;;;;;14.71;27.90;98886.41;4917910;29;20018;-96
2022/04/17 11:53:19;;;;;;;;;;;;;;;14.82;27.10;98882.28;4914595;29;19927;-94
2022/04/17 11:56:49;;;;;;;;;;;;;;;14.66;26.13;98872.88;5069235;23;19933;-94
2022/04/17 12:02:55;;;;;;;;;;;;;;;14.11;27.89;98862.22;5551161;23;19931;-92
2022/04/17 12:05:28;;;;;;;;;;;;;;;13.70;27.23;98856.94;4948030;28;20377;-92
2022/04/17 12:10:56;;;;;;;;;;;;;;;14.22;27.56;98852.66;5243565;23;19938;-94
2022/04/17 12:16:52;;;;;;;;;;;;;;;14.57;27.76;98826.34;4937168;29;19934;-95
2022/04/17 12:19:25;;;;;;;;;;;;;;;14.73;27.08;98834.13;5026114;23;19914;-92
2022/04/17 12:21:54;;;;;;;;;;;;;;;15.09;26.40;98834.72;4969667;28;19961;-96
2022/04/17 12:24:23;;;;;;;;;;;;;;;15.35;26.20;98828.50;4974212;28;19926;-96
2022/04/17 12:27:04;;;;;;;;;;;;;;;15.35;26.82;98833.97;4950881;28;19965;-95
2022/04/17 12:29:33;;;;;;;;;;;;;;;15.05;25.98;98824.72;4969599;28;20012;-93
2022/04/17 12:32:04;;;;;;;;;;;;;;;14.81;26.12;98825.16;4953345;28;20013;-94
2022/04/17 12:34:39;;;;;;;;;;;;;;;15.01;25.83;98826.47;4976758;28;19931;-96
2022/04/17 12:43:47;;;;;;;;;;;;;;;15.04;24.74;98818.44;5581773;23;19927;-95
2022/04/17 12:46:25;;;;;;;;;;;;;;;14.50;27.70;98806.84;4925342;28;19933;-96
2022/04/17 12:49:06;;;;;;;;;;;;;;;14.90;26.12;98807.63;4957151;28;19930;-96
2022/04/17 12:51:36;;;;;;;;;;;;;;;14.71;26.63;98804.34;4954074;28;20429;-94
2022/04/17 12:54:50;;;;;;;;;;;;;;;14.23;27.99;98802.34;4954115;29;19934;-93
2022/04/17 12:57:21;;;;;;;;;;;;;;;14.40;28.07;98799.69;4941060;29;19989;-95
2022/04/17 13:00:03;;;;;;;;;;;;;;;14.25;29.04;98796.56;4943700;29;19911;-95
2022/04/17 13:03:16;;;;;;;;;;;;;;;14.52;28.43;98798.31;5675061;23;19924;-96
2022/04/17 13:13:17;;;;;;;;;;;;;;;14.86;27.15;98775.72;5577737;23;19929;-95
2022/04/17 13:19:50;;;;;;;;;;;;;;;14.89;25.90;98755.97;5653619;23;19921;-96
2022/04/17 13:22:46;;;;;;;;;;;;;;;14.46;28.39;98764.00;5004777;28;19925;-96
2022/04/17 13:25:16;;;;;;;;;;;;;;;14.88;28.17;98759.81;4992678;28;19929;-96
2022/04/17 13:27:49;;;;;;;;;;;;;;;15.08;28.26;98756.50;4994768;28;19926;-96
2022/04/17 13:30:18;;;;;;;;;;;;;;;15.10;27.70;98747.94;4999281;28;19926;-95
2022/04/17 13:32:46;;;;;;;;;;;;;;;15.18;27.86;98747.97;4990377;28;19929;-96
2022/04/17 13:35:22;;;;;;;;;;;;;;;15.13;27.17;98756.34;4988472;28;19961;-96
2022/04/17 13:38:22;;;;;;;;;;;;;;;14.71;26.79;98743.38;4989823;28;19926;-86
2022/04/17 13:41:41;;;;;;;;;;;;;;;14.63;25.98;98737.56;4999595;28;19980;-93
2022/04/17 13:44:11;;;;;;;;;;;;;;;14.58;25.25;98732.22;4978217;28;19930;-89
2022/04/17 13:46:41;;;;;;;;;;;;;;;14.71;26.15;98727.78;4969466;28;19925;-89
2022/04/17 13:49:09;;;;;;;;;;;;;;;15.02;26.41;98724.94;4978863;28;19929;-95
2022/04/17 13:51:39;;;;;;;;;;;;;;;14.55;26.94;98712.94;4970030;28;19926;-95
2022/04/17 13:54:08;;;;;;;;;;;;;;;14.70;26.05;98715.22;4976804;28;19964;-96
2022/04/17 13:56:36;;;;;;;;;;;;;;;14.47;25.81;98710.94;4984507;28;19925;-95
2022/04/17 13:59:06;;;;;;;;;;;;;;;14.35;26.29;98706.09;4970186;28;19929;-95
2022/04/17 14:04:45;;;;;;;;;;;;;;;13.80;26.73;98693.63;4979512;28;19948;-94
2022/04/17 14:07:16;;;;;;;;;;;;;;;14.44;26.42;98684.25;4975678;28;19925;-94
2022/04/17 14:09:44;;;;;;;;;;;;;;;14.80;25.83;98686.75;4978536;28;19925;-95
2022/04/17 14:12:12;;;;;;;;;;;;;;;14.80;26.33;98681.28;4979807;28;19925;-96
2022/04/17 14:14:44;;;;;;;;;;;;;;;14.70;24.74;98687.03;4977513;28;19926;-93
2022/04/17 14:17:12;;;;;;;;;;;;;;;14.50;25.09;98669.34;4959247;28;19933;-93
2022/04/17 14:19:41;;;;;;;;;;;;;;;14.63;24.94;98674.66;4973911;28;19926;-89
2022/04/17 14:22:09;;;;;;;;;;;;;;;14.62;27.14;98672.25;4966175;28;19926;-89
2022/04/17 14:25:03;;;;;;;;;;;;;;;14.80;27.83;98670.31;4965509;28;19926;-88
2022/04/17 14:28:00;;;;;;;;;;;;;;;14.99;27.28;98659.09;4980616;28;19969;-83
2022/04/17 14:30:30;;;;;;;;;;;;;;;15.05;27.06;98664.06;4973507;28;19926;-84
2022/04/17 14:33:04;;;;;;;;;;;;;;;14.87;26.56;98651.53;4961774;28;19949;-93
2022/04/17 14:35:39;;;;;;;;;;;;;;;14.97;28.83;98651.22;4970687;28;20158;-92
2022/04/17 14:38:08;;;;;;;;;;;;;;;15.23;25.16;98650.38;4975189;28;19926;-93
2022/04/17 14:40:36;;;;;;;;;;;;;;;15.19;26.94;98642.81;4963573;28;20029;-91
2022/04/17 14:43:07;;;;;;;;;;;;;;;15.34;26.31;98643.44;4970868;28;20017;-86
2022/04/17 14:45:35;;;;;;;;;;;;;;;15.42;26.60;98643.41;4971162;28;19930;-86
2022/04/17 14:48:04;;;;;;;;;;;;;;;15.40;27.01;98636.69;4968797;28;19961;-88
2022/04/17 14:50:32;;;;;;;;;;;;;;;15.51;26.66;98626.19;4978228;28;20091;-87
2022/04/17 14:53:06;;;;;;;;;;;;;;;15.76;26.07;98627.25;4975903;28;19930;-89
2022/04/17 14:55:34;;;;;;;;;;;;;;;15.76;25.84;98630.78;4997836;28;19926;-92
2022/04/17 14:58:03;;;;;;;;;;;;;;;15.55;25.60;98627.13;4985633;28;19926;-91
2022/04/17 15:00:33;;;;;;;;;;;;;;;15.41;25.77;98632.81;4988973;28;20305;-94
2022/04/17 15:03:01;;;;;;;;;;;;;;;15.37;24.92;98621.69;4982717;28;20021;-90
2022/04/17 15:05:35;;;;;;;;;;;;;;;15.41;25.67;98619.91;4970155;28;19926;-92
2022/04/17 15:08:03;;;;;;;;;;;;;;;15.33;27.19;98606.22;4967322;28;20021;-93
2022/04/17 15:10:31;;;;;;;;;;;;;;;15.56;25.05;98613.13;4979004;28;19948;-93
2022/04/17 15:13:00;;;;;;;;;;;;;;;15.38;26.09;98606.06;4976516;28;19989;-92
2022/04/17 15:15:29;;;;;;;;;;;;;;;15.62;25.39;98606.34;4984385;28;19926;-90
2022/04/17 15:17:59;;;;;;;;;;;;;;;15.64;25.98;98606.03;4975404;28;19969;-92
2022/04/17 15:20:27;;;;;;;;;;;;;;;15.60;25.01;98608.56;4972431;28;19940;-92
2022/04/17 15:22:55;;;;;;;;;;;;;;;15.58;24.68;98599.09;4959128;28;20039;-90
2022/04/17 15:25:24;;;;;;;;;;;;;;;15.55;24.86;98595.06;4966422;28;20339;-92
2022/04/17 15:28:17;;;;;;;;;;;;;;;15.52;25.36;98584.78;4961779;28;20601;-91
2022/04/17 15:30:46;;;;;;;;;;;;;;;15.57;25.59;98583.78;4959581;28;19930;-89
2022/04/17 15:33:18;;;;;;;;;;;;;;;15.56;26.45;98582.19;4974339;28;19925;-89
2022/04/17 15:35:46;;;;;;;;;;;;;;;15.57;25.18;98572.84;4983879;28;19961;-89
2022/04/17 15:38:14;;;;;;;;;;;;;;;15.52;24.94;98573.03;4957916;28;19926;-89
2022/04/17 15:40:42;;;;;;;;;;;;;;;15.27;25.76;98575.50;4965849;28;20341;-90
2022/04/17 15:48:46;;;;;;;;;;;;;;;15.38;25.64;98571.28;4973236;28;19955;-95
2022/04/17 15:51:14;;;;;;;;;;;;;;;15.34;25.67;98566.78;4978955;28;19926;-84
2022/04/17 15:53:44;;;;;;;;;;;;;;;15.27;26.21;98559.06;4975725;28;19926;-85
2022/04/17 15:56:12;;;;;;;;;;;;;;;15.37;26.29;98560.66;4983728;28;19930;-82
2022/04/17 15:58:44;;;;;;;;;;;;;;;15.10;25.28;98561.84;4988226;28;19991;-84
2022/04/17 16:01:12;;;;;;;;;;;;;;;15.11;25.49;98555.25;4982586;28;19929;-86
2022/04/17 16:03:40;;;;;;;;;;;;;;;15.15;26.24;98567.97;4973464;28;19965;-84
2022/04/17 16:06:10;;;;;;;;;;;;;;;15.08;26.09;98561.38;4973494;28;20038;-85
2022/04/17 16:08:39;;;;;;;;;;;;;;;15.14;27.03;98562.81;4971150;28;19938;-84
2022/04/17 16:11:07;;;;;;;;;;;;;;;15.26;26.70;98560.19;4962224;28;19930;-85
2022/04/17 16:13:38;;;;;;;;;;;;;;;15.12;27.71;98554.09;4966421;28;20315;-81
2022/04/17 16:16:08;;;;;;;;;;;;;;;15.22;26.22;98556.50;4979616;28;20345;-80
2022/04/17 16:18:36;;;;;;;;;;;;;;;15.20;25.77;98553.31;4991186;28;20373;-82
2022/04/17 16:21:07;;;;;;;;;;;;;;;15.12;26.43;98554.09;5001020;28;20225;-81
2022/04/17 16:23:37;;;;;;;;;;;;;;;15.09;26.34;98552.84;4977963;28;19942;-81
2022/04/17 16:26:13;;;;;;;;;;;;;;;15.08;26.15;98544.97;5001075;28;19925;-80
2022/04/17 16:29:06;;;;;;;;;;;;;;;15.25;25.95;98544.91;4995770;28;19925;-77
2022/04/17 16:31:34;;;;;;;;;;;;;;;15.36;25.77;98545.38;4988636;28;20342;-77
2022/04/17 16:34:02;;;;;;;;;;;;;;;15.45;26.35;98548.88;4990232;28;19965;-77
2022/04/17 16:36:30;;;;;;;;;;;;;;;15.43;26.56;98545.66;4970246;28;19934;-76
2022/04/17 16:39:00;;;;;;;;;;;;;;;15.58;25.83;98545.13;4956043;28;20415;-77
2022/04/17 16:41:51;;;;;;;;;;;;;;;15.50;26.23;98545.97;4990273;28;20408;-76
2022/04/17 16:44:19;;;;;;;;;;;;;;;15.50;25.96;98543.22;4991626;28;19926;-75
2022/04/17 16:46:47;;;;;;;;;;;;;;;15.32;26.47;98538.94;4968754;28;19926;-74
2022/04/17 16:49:15;;;;;;;;;;;;;;;15.41;26.28;98532.31;4975266;28;19925;-76
2022/04/17 16:51:43;;;;;;;;;;;;;;;15.30;25.79;98525.56;4969734;28;19933;-76
2022/04/17 16:54:12;;;;;;;;;;;;;;;15.43;26.31;98521.00;5002292;28;19933;-81
2022/04/17 16:56:41;;;;;;;;;;;;;;;15.44;26.02;98522.63;4998462;28;19992;-83
2022/04/17 16:59:14;;;;;;;;;;;;;;;15.27;25.47;98520.75;4995066;28;19938;-84
2022/04/17 17:01:42;;;;;;;;;;;;;;;15.01;25.43;98523.53;4980649;28;19925;-83
2022/04/17 17:04:10;;;;;;;;;;;;;;;14.80;25.78;98517.94;4997822;28;20392;-83
2022/04/17 17:06:38;;;;;;;;;;;;;;;14.78;25.52;98516.69;4986424;28;19934;-85
2022/04/17 17:09:06;;;;;;;;;;;;;;;14.58;26.13;98513.47;4991759;28;19933;-84
2022/04/17 17:11:37;;;;;;;;;;;;;;;14.59;25.83;98515.06;4988257;28;20123;-79
2022/04/17 17:14:05;;;;;;;;;;;;;;;14.76;23.37;98516.22;4995886;28;19932;-75
2022/04/17 17:16:34;;;;;;;;;;;;;;;14.70;23.68;98517.47;4986382;28;19930;-75
2022/04/17 17:19:02;;;;;;;;;;;;;;;14.45;24.52;98519.88;5008676;28;19929;-74
2022/04/17 17:21:30;;;;;;;;;;;;;;;14.46;23.35;98517.97;5001552;28;19934;-74
2022/04/17 17:23:58;;;;;;;;;;;;;;;14.34;23.36;98511.22;4992028;28;19933;-75
2022/04/17 17:26:26;;;;;;;;;;;;;;;14.26;22.89;98514.72;4997127;28;19948;-75
2022/04/17 17:28:55;;;;;;;;;;;;;;;14.38;23.04;98511.34;4987217;28;19953;-76
2022/04/17 17:31:23;;;;;;;;;;;;;;;14.19;23.30;98508.16;4997508;28;20050;-75
2022/04/17 17:33:51;;;;;;;;;;;;;;;14.19;23.56;98502.69;5000284;28;19934;-76
2022/04/17 17:36:20;;;;;;;;;;;;;;;14.15;22.91;98511.50;4981589;28;19980;-76
2022/04/17 17:42:29;;;;;;;;;;;;;;;13.89;23.29;98505.19;4991822;28;19944;-76
2022/04/17 17:44:58;;;;;;;;;;;;;;;13.86;22.82;98503.13;4976170;28;19947;-76
2022/04/17 17:47:28;;;;;;;;;;;;;;;13.79;23.56;98508.22;4990307;28;19933;-76
2022/04/17 17:53:57;;;;;;;;;;;;;;;13.51;23.83;98515.84;4990802;28;19984;-76
2022/04/17 17:56:25;;;;;;;;;;;;;;;13.53;23.36;98514.44;4974096;28;19940;-76
2022/04/17 17:58:53;;;;;;;;;;;;;;;13.34;24.92;98511.13;4967348;28;20403;-76
2022/04/17 18:01:23;;;;;;;;;;;;;;;13.35;25.25;98513.53;4980377;28;20395;-75
2022/04/17 18:03:51;;;;;;;;;;;;;;;13.34;24.45;98513.84;4992202;28;19945;-76
2022/04/17 18:06:19;;;;;;;;;;;;;;;13.45;24.43;98517.91;4989316;28;20028;-75
2022/04/17 18:14:34;;;;;;;;;;;;;;;13.28;24.71;98524.09;4990628;28;19964;-75
2022/04/17 18:17:03;;;;;;;;;;;;;;;13.13;25.44;98518.22;4991357;28;19947;-76
2022/04/17 18:19:32;;;;;;;;;;;;;;;12.80;26.67;98524.75;4981502;28;19930;-75
2022/04/17 18:27:39;;;;;;;;;;;;;;;12.88;26.29;98525.94;4971158;28;19997;-75
2022/04/17 18:30:14;;;;;;;;;;;;;;;12.79;26.51;98534.06;4966182;28;19933;-75
2022/04/17 18:32:43;;;;;;;;;;;;;;;12.73;26.29;98529.03;4982898;28;20024;-76
2022/04/17 18:35:11;;;;;;;;;;;;;;;12.47;27.30;98526.94;4983896;28;19937;-75
2022/04/17 18:37:39;;;;;;;;;;;;;;;12.58;26.27;98533.75;4989073;28;20280;-76
2022/04/17 18:40:31;;;;;;;;;;;;;;;12.40;26.76;98523.81;4975624;28;20569;-76
2022/04/17 18:43:00;;;;;;;;;;;;;;;12.23;27.88;98532.66;4972766;28;19956;-75
2022/04/17 18:45:28;;;;;;;;;;;;;;;12.21;27.23;98532.16;4972614;28;19926;-75
2022/04/17 18:48:00;;;;;;;;;;;;;;;12.07;28.34;98534.91;4970261;28;20309;-75
2022/04/17 18:50:28;;;;;;;;;;;;;;;12.32;26.98;98535.47;4976739;28;19972;-75
2022/04/17 18:52:59;;;;;;;;;;;;;;;12.11;27.46;98546.00;4962319;28;19958;-75
2022/04/17 18:55:31;;;;;;;;;;;;;;;12.01;27.39;98536.13;4973209;28;20373;-75
2022/04/17 18:57:59;;;;;;;;;;;;;;;12.11;27.19;98537.03;4969692;28;19977;-75
2022/04/17 19:00:52;;;;;;;;;;;;;;;11.96;27.38;98538.94;4983415;28;19973;-75
2022/04/17 19:03:22;;;;;;;;;;;;;;;11.92;27.48;98540.66;4975505;28;20039;-75
2022/04/17 19:05:53;;;;;;;;;;;;;;;12.04;27.27;98534.72;4976859;28;19934;-75
2022/04/17 19:08:25;;;;;;;;;;;;;;;11.84;27.46;98530.50;4969804;28;19940;-75
2022/04/17 19:10:53;;;;;;;;;;;;;;;11.57;28.09;98535.94;4979711;28;19926;-75
2022/04/17 19:14:01;;;;;;;;;;;;;;;11.54;28.79;98532.69;4969411;28;19926;-75
2022/04/17 19:16:29;;;;;;;;;;;;;;;11.45;28.56;98529.09;4984221;28;20400;-75
2022/04/17 19:19:22;;;;;;;;;;;;;;;11.63;28.53;98530.09;4983987;28;19965;-75
2022/04/17 19:21:52;;;;;;;;;;;;;;;11.38;28.69;98534.09;4944411;28;19926;-75
2022/04/17 19:24:21;;;;;;;;;;;;;;;11.39;29.16;98532.19;4981277;28;20385;-75
2022/04/17 19:26:49;;;;;;;;;;;;;;;11.33;28.73;98536.91;4969159;28;19930;-75
2022/04/17 19:29:17;;;;;;;;;;;;;;;11.40;28.59;98531.91;4982086;28;19933;-75
2022/04/17 19:37:45;;;;;;;;;;;;;;;11.20;29.56;98526.84;4986865;28;19941;-74
2022/04/17 19:40:38;;;;;;;;;;;;;;;11.11;28.99;98528.63;4986091;28;19933;-75
2022/04/17 19:43:06;;;;;;;;;;;;;;;10.99;30.16;98527.19;4968232;28;20269;-75
2022/04/17 19:45:34;;;;;;;;;;;;;;;10.97;29.93;98525.88;4967474;28;20392;-75
2022/04/17 19:48:02;;;;;;;;;;;;;;;10.90;30.50;98528.97;4961876;28;19984;-75
2022/04/17 19:50:32;;;;;;;;;;;;;;;10.90;29.81;98526.25;4963050;28;19980;-75
2022/04/17 19:53:02;;;;;;;;;;;;;;;10.90;29.19;98523.53;4960531;28;19981;-74
2022/04/17 19:55:58;;;;;;;;;;;;;;;10.88;30.00;98533.91;4954890;28;19948;-74
2022/04/17 19:58:52;;;;;;;;;;;;;;;11.16;29.28;98531.25;4968604;28;19930;-75
2022/04/17 20:01:20;;;;;;;;;;;;;;;10.86;29.95;98527.94;4984438;28;19930;-75
2022/04/17 20:03:47;;;;;;;;;;;;;;;10.60;30.84;98530.31;4984558;28;19934;-75
2022/04/17 20:06:15;;;;;;;;;;;;;;;10.56;31.07;98528.47;4968321;28;19925;-75
2022/04/17 20:08:45;;;;;;;;;;;;;;;10.60;30.18;98530.31;4961719;28;20447;-75
2022/04/17 20:11:17;;;;;;;;;;;;;;;10.85;29.80;98529.06;4973212;28;19930;-75
2022/04/17 20:13:47;;;;;;;;;;;;;;;10.40;30.68;98530.63;4982572;28;19926;-75
2022/04/17 20:16:14;;;;;;;;;;;;;;;10.71;30.44;98520.09;4981456;28;19972;-74
2022/04/17 20:18:43;;;;;;;;;;;;;;;10.50;31.29;98525.03;4976133;28;19933;-75
2022/04/17 20:21:34;;;;;;;;;;;;;;;10.24;31.81;98521.88;4958752;28;19926;-76
2022/04/17 20:24:05;;;;;;;;;;;;;;;10.16;31.48;98530.66;4942657;28;20390;-75
2022/04/17 20:26:32;;;;;;;;;;;;;;;10.08;32.67;98523.19;4980121;28;20353;-76
2022/04/17 20:29:01;;;;;;;;;;;;;;;10.07;32.42;98525.09;4988810;28;19926;-75
2022/04/17 20:31:29;;;;;;;;;;;;;;;9.91;32.30;98519.06;4985311;28;19933;-75
2022/04/17 20:33:57;;;;;;;;;;;;;;;10.01;31.96;98528.16;4978881;28;20017;-75
2022/04/17 20:36:24;;;;;;;;;;;;;;;9.84;32.88;98528.63;4978745;28;20347;-74
2022/04/17 20:38:52;;;;;;;;;;;;;;;9.82;32.50;98531.66;4983635;28;19930;-75
2022/04/17 20:41:22;;;;;;;;;;;;;;;9.77;32.79;98520.88;4950191;28;20292;-74
2022/04/17 20:52:11;;;;;;;;;;;;;;;9.56;33.62;98524.91;4974508;28;20042;-75
2022/04/17 20:54:39;;;;;;;;;;;;;;;9.53;33.72;98522.78;4980673;28;19932;-75
2022/04/17 20:57:09;;;;;;;;;;;;;;;9.50;33.45;98517.94;4975252;28;19930;-75
2022/04/17 20:59:40;;;;;;;;;;;;;;;9.40;33.11;98518.88;4975121;28;19933;-75
2022/04/17 21:02:08;;;;;;;;;;;;;;;9.47;33.52;98523.94;4962065;28;19926;-75
2022/04/17 21:04:36;;;;;;;;;;;;;;;9.71;33.52;98520.13;4975608;28;19926;-74
2022/04/17 21:07:05;;;;;;;;;;;;;;;9.53;32.87;98512.72;4973395;28;19938;-74
2022/04/17 21:09:33;;;;;;;;;;;;;;;9.31;33.65;98518.69;4976628;28;20455;-74
2022/04/17 21:12:01;;;;;;;;;;;;;;;9.28;34.02;98521.97;4979591;28;19926;-74
2022/04/17 21:14:30;;;;;;;;;;;;;;;9.21;34.30;98524.22;4961851;28;19932;-75
2022/04/17 21:16:58;;;;;;;;;;;;;;;9.41;33.62;98526.69;4986384;28;19926;-74
2022/04/17 21:19:26;;;;;;;;;;;;;;;9.13;34.33;98524.84;4979539;28;19945;-73
2022/04/17 21:21:54;;;;;;;;;;;;;;;9.42;33.49;98528.31;4979603;28;19937;-73
2022/04/17 21:24:22;;;;;;;;;;;;;;;9.27;34.17;98524.97;4977050;28;19933;-73
2022/04/17 21:26:51;;;;;;;;;;;;;;;9.23;34.25;98521.22;4978576;28;20387;-73
2022/04/17 21:29:25;;;;;;;;;;;;;;;9.22;34.00;98527.75;4990633;28;20017;-73
2022/04/17 21:31:54;;;;;;;;;;;;;;;8.82;35.01;98533.25;4980831;28;19926;-73
2022/04/17 21:34:23;;;;;;;;;;;;;;;8.83;35.40;98537.59;4984317;28;19926;-74
2022/04/17 21:37:17;;;;;;;;;;;;;;;8.81;35.45;98528.94;4975017;28;20332;-73
2022/04/17 21:39:45;;;;;;;;;;;;;;;8.76;35.41;98537.09;4970988;28;19926;-73
2022/04/17 21:42:14;;;;;;;;;;;;;;;8.96;35.73;98532.63;4979332;28;19997;-74
2022/04/17 21:44:43;;;;;;;;;;;;;;;9.00;34.90;98529.06;4976339;28;19925;-74
2022/04/17 21:47:15;;;;;;;;;;;;;;;9.18;34.11;98535.63;4968718;28;19965;-73
2022/04/17 21:49:43;;;;;;;;;;;;;;;8.67;35.74;98517.13;4982026;28;19932;-73
2022/04/17 21:52:11;;;;;;;;;;;;;;;8.64;35.21;98520.44;4985275;28;19926;-74
2022/04/17 21:54:39;;;;;;;;;;;;;;;8.46;35.87;98523.81;4977313;28;20330;-73
2022/04/17 21:57:32;;;;;;;;;;;;;;;8.39;36.36;98521.41;4971295;28;20327;-73
2022/04/17 22:05:59;;;;;;;;;;;;;;;8.31;36.54;98509.28;4986684;28;19926;-73
2022/04/17 22:08:27;;;;;;;;;;;;;;;8.26;36.39;98500.38;4978760;28;19961;-73
2022/04/17 22:10:55;;;;;;;;;;;;;;;8.28;35.87;98498.19;4987943;28;19930;-74
2022/04/17 22:13:47;;;;;;;;;;;;;;;8.50;36.17;98500.50;4972892;28;19930;-75
2022/04/17 22:16:15;;;;;;;;;;;;;;;8.34;36.14;98503.28;4984509;28;20332;-75
2022/04/17 22:18:44;;;;;;;;;;;;;;;8.24;36.12;98497.94;4973423;28;20581;-73
2022/04/17 22:21:36;;;;;;;;;;;;;;;8.11;36.58;98498.56;4964508;28;19933;-75
2022/04/17 22:24:05;;;;;;;;;;;;;;;8.16;37.02;98503.97;4964461;28;20016;-75
2022/04/17 22:26:32;;;;;;;;;;;;;;;8.06;36.91;98495.91;4986698;28;19926;-75
2022/04/17 22:29:00;;;;;;;;;;;;;;;8.14;36.52;98495.28;4958130;28;19926;-75
2022/04/17 22:31:29;;;;;;;;;;;;;;;8.15;36.58;98496.94;4971520;28;20378;-75
2022/04/17 22:33:58;;;;;;;;;;;;;;;8.01;37.02;98493.22;4945757;28;19958;-74
2022/04/17 22:36:26;;;;;;;;;;;;;;;7.95;37.13;98494.34;4966376;28;19934;-75
2022/04/17 22:39:18;;;;;;;;;;;;;;;8.11;36.79;98487.75;4974757;28;19933;-74
2022/04/17 22:42:10;;;;;;;;;;;;;;;7.88;37.18;98492.78;4988380;28;20506;-75
2022/04/17 22:44:38;;;;;;;;;;;;;;;7.60;37.62;98485.31;4977510;28;19926;-74
2022/04/17 22:47:07;;;;;;;;;;;;;;;7.61;38.29;98492.34;4964354;28;20095;-75
2022/04/17 22:49:36;;;;;;;;;;;;;;;7.50;38.24;98483.47;4968949;28;20013;-75
2022/04/17 22:52:04;;;;;;;;;;;;;;;7.66;38.59;98484.22;4956486;28;19930;-75
2022/04/17 22:54:33;;;;;;;;;;;;;;;7.88;38.57;98484.66;4972197;28;19925;-75
2022/04/17 22:59:54;;;;;;;;;;;;;;;7.70;38.73;98490.69;4965132;28;19926;-75
2022/04/17 23:02:21;;;;;;;;;;;;;;;7.57;38.81;98484.00;4962697;28;20500;-75
2022/04/17 23:04:50;;;;;;;;;;;;;;;7.26;39.25;98477.09;4972946;28;19930;-75
2022/04/17 23:07:19;;;;;;;;;;;;;;;7.21;39.75;98475.22;4973240;28;19926;-75
2022/04/17 23:09:47;;;;;;;;;;;;;;;7.14;39.86;98474.69;4963225;28;20429;-75
2022/04/17 23:12:16;;;;;;;;;;;;;;;7.59;39.15;98475.59;4973561;28;19980;-75
2022/04/17 23:14:44;;;;;;;;;;;;;;;7.50;39.29;98471.84;4968165;28;20008;-74
2022/04/17 23:17:11;;;;;;;;;;;;;;;7.16;39.46;98467.13;4965250;28;20395;-75
2022/04/17 23:19:40;;;;;;;;;;;;;;;7.16;39.91;98472.53;4967812;28;19933;-74
2022/04/17 23:22:09;;;;;;;;;;;;;;;7.28;39.47;98461.41;4971538;28;20380;-74
2022/04/17 23:24:37;;;;;;;;;;;;;;;7.15;40.36;98465.50;4973687;28;19969;-75
2022/04/17 23:27:05;;;;;;;;;;;;;;;7.16;39.91;98458.22;4978329;28;19930;-74
2022/04/17 23:29:33;;;;;;;;;;;;;;;7.23;40.11;98458.72;4956868;28;19926;-74
2022/04/17 23:32:01;;;;;;;;;;;;;;;7.09;40.10;98453.09;4972370;28;19926;-74
2022/04/17 23:34:28;;;;;;;;;;;;;;;6.89;41.04;98450.44;4976985;28;20603;-74
2022/04/17 23:36:56;;;;;;;;;;;;;;;7.12;40.61;98444.44;4974762;28;19968;-74
2022/04/17 23:39:26;;;;;;;;;;;;;;;6.83;40.89;98449.66;4976202;28;19926;-75
2022/04/17 23:41:54;;;;;;;;;;;;;;;6.61;41.43;98449.97;4976265;28;19927;-74
2022/04/17 23:44:22;;;;;;;;;;;;;;;6.87;41.36;98439.09;4985673;28;19968;-75
2022/04/17 23:46:50;;;;;;;;;;;;;;;6.73;41.94;98433.47;4978977;28;19957;-75
2022/04/17 23:49:18;;;;;;;;;;;;;;;6.80;41.69;98442.09;4975015;28;19992;-74
2022/04/17 23:52:12;;;;;;;;;;;;;;;6.78;41.35;98436.16;4973462;28;20549;-74
2022/04/17 23:54:41;;;;;;;;;;;;;;;6.83;41.23;98436.16;4992618;28;19934;-75
